Time;durP1;ratioP1;P1;durP2;ratioP2;P2;SDS_P1;SDS_P2;PMS_P1;PMS_P2;Temp;Humidity;BMP_temperature;BMP_pressure;BME280_temperature;BME280_humidity;BME280_pressure;Samples;Min_cycle;Max_cycle;Signal;HPM_P1;HPM_P2
2022/04/22 00:01:46;;;;;;;14.50;11.57;;;;;;;7.87;78.32;100284.73;1689221;83;21452;-74
2022/04/22 00:04:14;;;;;;;14.28;11.05;;;;;;;7.86;78.30;100285.77;1665745;84;21071;-76
2022/04/22 00:06:42;;;;;;;13.85;10.85;;;;;;;7.86;78.27;100288.42;1689263;83;21063;-74
2022/04/22 00:09:11;;;;;;;13.53;11.43;;;;;;;7.88;78.31;100289.79;1663237;84;21605;-74
2022/04/22 00:11:38;;;;;;;12.55;10.50;;;;;;;7.87;78.23;100292.18;1663472;84;21710;-74
2022/04/22 00:14:07;;;;;;;12.80;10.55;;;;;;;7.87;78.20;100287.39;1701275;82;21103;-73
2022/04/22 00:16:33;;;;;;;12.18;9.83;;;;;;;7.84;78.18;100286.55;1693495;82;21070;-73
2022/04/22 00:19:01;;;;;;;13.18;11.05;;;;;;;7.82;78.25;100288.11;1665966;84;21063;-73
2022/04/22 00:21:30;;;;;;;12.68;10.10;;;;;;;7.83;78.28;100289.73;1660427;84;21166;-73
2022/04/22 00:23:58;;;;;;;13.78;11.12;;;;;;;7.83;78.30;100286.25;1686100;83;21640;-72
2022/04/22 00:26:27;;;;;;;14.90;11.50;;;;;;;7.80;78.35;100285.41;1692961;83;20999;-74
2022/04/22 00:28:54;;;;;;;16.93;12.53;;;;;;;7.77;78.44;100285.92;1695061;84;21002;-75
2022/04/22 00:31:23;;;;;;;13.93;11.15;;;;;;;7.79;78.51;100291.78;1720177;82;21135;-74
2022/04/22 00:33:50;;;;;;;13.55;11.08;;;;;;;7.81;78.56;100289.17;1692146;83;21078;-74
2022/04/22 00:36:19;;;;;;;12.58;10.05;;;;;;;7.86;78.52;100291.08;1695958;82;21047;-74
2022/04/22 00:38:46;;;;;;;12.75;10.35;;;;;;;7.89;78.47;100287.94;1694617;83;21123;-74
2022/04/22 00:41:14;;;;;;;12.85;10.30;;;;;;;7.88;78.37;100284.47;1685190;83;21581;-74
2022/04/22 00:43:48;;;;;;;12.23;9.53;;;;;;;7.91;78.31;100291.16;1688058;83;21141;-77
2022/04/22 00:46:17;;;;;;;11.00;8.88;;;;;;;7.90;78.18;100284.24;1683029;83;21012;-75
2022/04/22 00:48:44;;;;;;;10.78;8.83;;;;;;;7.91;78.17;100287.97;1660434;84;21356;-73
2022/04/22 00:51:13;;;;;;;11.12;9.05;;;;;;;7.93;78.01;100290.38;1684404;83;21078;-75
2022/04/22 00:53:41;;;;;;;10.63;8.75;;;;;;;7.94;77.94;100284.03;1693576;82;21098;-74
2022/04/22 00:56:13;;;;;;;10.58;8.50;;;;;;;7.96;77.86;100281.41;1689237;83;21632;-74
2022/04/22 00:58:44;;;;;;;11.05;8.95;;;;;;;8.00;77.78;100284.37;1689239;82;21130;-74
2022/04/22 01:01:13;;;;;;;12.03;9.80;;;;;;;8.05;77.67;100288.95;1680734;83;21247;-74
2022/04/22 01:12:06;;;;;;;15.58;12.63;;;;;;;8.02;77.46;100287.58;1695805;82;21649;-75
2022/04/22 01:14:34;;;;;;;15.58;12.33;;;;;;;8.02;77.54;100289.44;1690345;82;21278;-75
2022/04/22 01:17:01;;;;;;;15.10;12.55;;;;;;;8.03;77.59;100290.53;1689804;83;21083;-75
2022/04/22 01:19:29;;;;;;;15.58;12.98;;;;;;;8.06;77.65;100292.70;1683364;83;21173;-76
2022/04/22 01:21:56;;;;;;;16.17;13.08;;;;;;;8.06;77.64;100290.55;1687663;83;21830;-75
2022/04/22 01:24:23;;;;;;;15.40;12.50;;;;;;;8.08;77.69;100286.59;1697464;83;21050;-74
2022/04/22 01:26:52;;;;;;;13.53;11.20;;;;;;;8.07;77.61;100288.98;1695136;83;20983;-74
2022/04/22 01:29:19;;;;;;;14.55;11.38;;;;;;;8.06;77.58;100288.72;1697190;83;21058;-75
2022/04/22 01:31:47;;;;;;;13.45;11.20;;;;;;;8.06;77.56;100287.38;1673670;84;21081;-75
2022/04/22 01:34:15;;;;;;;13.03;10.93;;;;;;;8.06;77.54;100286.05;1667060;84;21507;-75
2022/04/22 01:36:42;;;;;;;12.45;10.40;;;;;;;8.05;77.49;100283.09;1666381;84;21140;-76
2022/04/22 01:39:10;;;;;;;12.63;10.10;;;;;;;8.02;77.40;100279.59;1695655;84;21515;-75
2022/04/22 01:41:37;;;;;;;12.00;9.68;;;;;;;8.01;77.42;100283.31;1668710;84;21051;-74
2022/04/22 01:44:06;;;;;;;10.60;8.70;;;;;;;8.01;77.36;100283.84;1700939;82;20967;-75
2022/04/22 01:46:34;;;;;;;12.03;10.25;;;;;;;7.96;77.32;100282.73;1665039;85;21103;-73
2022/04/22 01:49:02;;;;;;;10.98;8.95;;;;;;;7.91;77.36;100281.86;1684316;84;20963;-72
2022/04/22 01:51:30;;;;;;;11.45;9.58;;;;;;;7.92;77.43;100276.80;1672190;84;21634;-73
2022/04/22 01:53:58;;;;;;;12.78;10.98;;;;;;;7.87;77.51;100276.23;1680632;84;21075;-73
2022/04/22 01:56:25;;;;;;;14.38;11.08;;;;;;;7.85;77.64;100278.31;1683408;83;21008;-73
2022/04/22 01:58:54;;;;;;;13.20;10.43;;;;;;;7.88;77.77;100273.03;1697659;82;21115;-74
2022/04/22 02:01:21;;;;;;;11.85;9.95;;;;;;;7.90;77.82;100271.75;1699350;83;21111;-72
2022/04/22 02:03:49;;;;;;;12.80;10.20;;;;;;;7.89;77.86;100279.95;1677339;84;21099;-73
2022/04/22 02:06:17;;;;;;;12.15;10.35;;;;;;;7.82;77.95;100281.46;1674746;83;20984;-74
2022/04/22 02:08:45;;;;;;;12.25;9.98;;;;;;;7.78;78.10;100282.20;1691304;82;21509;-74
2022/04/22 02:11:13;;;;;;;10.10;8.58;;;;;;;7.74;78.26;100286.69;1671847;84;21074;-73
2022/04/22 02:13:41;;;;;;;11.00;9.25;;;;;;;7.74;78.41;100284.55;1675369;82;21077;-76
2022/04/22 02:16:09;;;;;;;9.58;8.33;;;;;;;7.71;78.53;100283.19;1714923;82;21724;-74
2022/04/22 02:18:42;;;;;;;11.55;9.55;;;;;;;7.69;78.62;100280.48;1695632;83;20979;-72
2022/04/22 02:21:05;;;;;;;11.18;9.58;;;;;;;7.67;78.76;100282.07;1685356;83;21133;-73
2022/04/22 02:23:34;;;;;;;11.63;9.78;;;;;;;7.65;78.88;100279.37;1690961;83;21570;-73
2022/04/22 02:26:03;;;;;;;11.03;9.55;;;;;;;7.64;79.02;100277.77;1697949;83;20988;-73
2022/04/22 02:28:33;;;;;;;13.15;10.53;;;;;;;7.61;79.13;100279.58;1699773;83;21386;-73
2022/04/22 02:31:10;;;;;;;11.53;9.93;;;;;;;7.59;79.24;100281.67;1695155;83;21019;-73
2022/04/22 02:33:39;;;;;;;11.85;10.25;;;;;;;7.60;79.36;100276.62;1685015;84;20992;-73
2022/04/22 02:36:07;;;;;;;11.73;10.13;;;;;;;7.61;79.42;100288.36;1705642;82;21090;-74
2022/04/22 02:38:35;;;;;;;13.53;10.75;;;;;;;7.63;79.47;100287.57;1690908;84;21151;-74
2022/04/22 02:46:38;;;;;;;12.15;10.18;;;;;;;7.65;79.57;100287.34;1702666;82;21032;-72
2022/04/22 02:49:05;;;;;;;12.43;10.90;;;;;;;7.67;79.62;100288.72;1683198;82;21062;-73
2022/04/22 02:51:32;;;;;;;11.73;9.55;;;;;;;7.67;79.66;100283.40;1691545;82;21070;-73
2022/04/22 02:54:00;;;;;;;12.73;11.33;;;;;;;7.69;79.65;100288.45;1711791;82;21542;-72
2022/04/22 02:56:28;;;;;;;12.93;10.82;;;;;;;7.66;79.67;100279.64;1699557;82;21035;-73
2022/04/22 02:58:56;;;;;;;12.93;10.50;;;;;;;7.62;79.77;100278.00;1646439;85;21582;-72
2022/04/22 03:01:23;;;;;;;13.25;11.08;;;;;;;7.61;79.88;100283.57;1694939;82;21154;-72
2022/04/22 03:03:50;;;;;;;12.40;10.58;;;;;;;7.61;79.99;100287.02;1653254;84;21468;-72
2022/04/22 03:06:18;;;;;;;11.93;10.25;;;;;;;7.60;80.07;100288.09;1662348;84;21177;-75
2022/04/22 03:08:45;;;;;;;11.75;10.32;;;;;;;7.59;80.20;100290.97;1664205;84;21028;-73
2022/04/22 03:11:20;;;;;;;12.90;10.78;;;;;;;7.57;80.40;100290.39;1665680;84;21201;-73
2022/04/22 03:13:44;;;;;;;11.78;9.78;;;;;;;7.56;80.48;100293.58;1687067;83;21397;-73
2022/04/22 03:16:11;;;;;;;11.70;10.45;;;;;;;7.58;80.60;100296.81;1683127;84;21073;-73
2022/04/22 03:18:40;;;;;;;12.23;9.98;;;;;;;7.59;80.66;100294.42;1656137;84;21168;-73
2022/04/22 03:21:07;;;;;;;11.38;9.65;;;;;;;7.59;80.71;100293.63;1687068;82;21036;-74
2022/04/22 03:23:36;;;;;;;11.75;10.30;;;;;;;7.61;80.83;100294.20;1686193;83;21130;-74
2022/04/22 03:26:04;;;;;;;12.98;11.03;;;;;;;7.61;80.88;100295.00;1683727;83;21775;-74
2022/04/22 03:28:31;;;;;;;12.68;10.50;;;;;;;7.61;80.95;100299.52;1688661;83;21027;-77
2022/04/22 03:31:00;;;;;;;14.13;11.57;;;;;;;7.61;80.97;100295.53;1663344;84;21087;-74
2022/04/22 03:33:27;;;;;;;13.48;11.55;;;;;;;7.63;81.06;100302.19;1683246;83;21049;-74
2022/04/22 03:35:56;;;;;;;13.70;11.25;;;;;;;7.65;81.09;100305.95;1686160;83;21078;-74
2022/04/22 03:38:23;;;;;;;12.93;10.88;;;;;;;7.65;81.18;100305.42;1682285;84;21352;-73
2022/04/22 03:40:52;;;;;;;13.20;11.08;;;;;;;7.68;81.22;100310.25;1679382;83;21581;-73
2022/04/22 03:43:21;;;;;;;13.30;11.15;;;;;;;7.71;81.25;100310.30;1682078;83;21398;-73
2022/04/22 03:45:48;;;;;;;12.68;11.28;;;;;;;7.71;81.29;100312.42;1681905;83;21121;-73
2022/04/22 03:48:15;;;;;;;11.63;10.43;;;;;;;7.73;81.29;100311.67;1681437;83;21078;-73
2022/04/22 03:50:42;;;;;;;12.35;10.45;;;;;;;7.74;81.35;100311.94;1680983;83;21560;-73
2022/04/22 03:53:13;;;;;;;11.90;9.73;;;;;;;7.78;81.39;100315.45;1682680;83;21011;-73
2022/04/22 03:55:41;;;;;;;12.23;10.25;;;;;;;7.78;81.39;100311.45;1682336;83;21851;-73
2022/04/22 03:58:12;;;;;;;12.28;10.95;;;;;;;7.83;81.45;100320.81;1684655;83;21533;-74
2022/04/22 04:00:48;;;;;;;11.70;10.15;;;;;;;7.89;81.41;100323.83;1677915;83;21023;-72
2022/04/22 04:03:21;;;;;;;10.90;9.70;;;;;;;7.92;81.38;100325.47;1684169;83;21162;-73
2022/04/22 04:05:51;;;;;;;11.85;10.58;;;;;;;7.94;81.36;100326.58;1681815;83;21074;-72
2022/04/22 04:08:21;;;;;;;10.65;9.25;;;;;;;7.98;81.38;100319.70;1693911;83;21549;-76
2022/04/22 04:16:23;;;;;;;12.63;10.82;;;;;;;8.10;81.37;100315.63;1687982;83;22185;-73
2022/04/22 04:18:51;;;;;;;11.97;10.18;;;;;;;8.11;81.39;100315.89;1684928;83;21126;-74
2022/04/22 04:24:06;;;;;;;13.38;11.97;;;;;;;8.21;81.43;100330.12;1681320;83;21039;-76
2022/04/22 04:26:33;;;;;;;11.43;10.23;;;;;;;8.27;81.34;100327.02;1684700;83;21581;-73
2022/04/22 04:29:02;;;;;;;12.98;11.68;;;;;;;8.33;81.29;100331.87;1677121;84;21468;-75
2022/04/22 04:31:31;;;;;;;12.70;11.18;;;;;;;8.36;81.18;100330.06;1683128;83;21026;-74
2022/04/22 04:33:59;;;;;;;13.03;11.63;;;;;;;8.42;81.15;100337.89;1676404;83;20959;-75
2022/04/22 04:36:28;;;;;;;12.68;11.25;;;;;;;8.44;80.98;100334.44;1681481;83;20982;-74
2022/04/22 04:38:55;;;;;;;13.85;12.07;;;;;;;8.42;80.92;100342.37;1676736;83;21004;-74
2022/04/22 04:41:23;;;;;;;12.35;11.03;;;;;;;8.47;80.90;100342.98;1678917;83;21575;-72
2022/04/22 04:43:51;;;;;;;12.45;11.00;;;;;;;8.52;80.90;100342.50;1679948;83;21645;-75
2022/04/22 04:46:20;;;;;;;12.03;10.80;;;;;;;8.55;80.76;100344.66;1686945;83;21861;-71
2022/04/22 04:48:46;;;;;;;12.73;11.43;;;;;;;8.55;80.70;100351.32;1681473;84;21737;-75
2022/04/22 04:51:17;;;;;;;12.18;10.90;;;;;;;8.57;80.71;100349.23;1677970;82;21113;-74
2022/04/22 04:53:44;;;;;;;15.13;13.32;;;;;;;8.61;80.73;100349.00;1678294;83;21137;-73
2022/04/22 04:56:13;;;;;;;12.60;11.18;;;;;;;8.66;80.71;100350.41;1680656;83;21034;-72
2022/04/22 04:58:41;;;;;;;14.13;12.63;;;;;;;8.74;80.63;100353.14;1678695;83;21140;-73
2022/04/22 05:01:10;;;;;;;14.53;13.03;;;;;;;8.78;80.50;100354.77;1680469;82;20995;-73
2022/04/22 05:03:38;;;;;;;14.25;12.25;;;;;;;8.82;80.43;100352.72;1685634;84;21078;-76
2022/04/22 05:06:05;;;;;;;14.87;13.38;;;;;;;8.84;80.35;100353.78;1680482;83;21145;-74
2022/04/22 05:08:33;;;;;;;14.83;13.22;;;;;;;8.87;80.30;100349.29;1674916;84;21110;-71
2022/04/22 05:11:00;;;;;;;14.40;12.90;;;;;;;8.91;80.25;100353.05;1687629;83;21148;-77
2022/04/22 05:13:28;;;;;;;14.58;13.08;;;;;;;8.93;80.08;100350.95;1677896;83;20964;-72
2022/04/22 05:15:57;;;;;;;14.73;13.18;;;;;;;8.92;79.93;100356.02;1689843;82;21114;-72
2022/04/22 05:18:24;;;;;;;15.13;13.50;;;;;;;8.91;79.94;100355.72;1702250;83;21539;-72
2022/04/22 05:20:54;;;;;;;15.58;13.38;;;;;;;8.95;80.01;100352.85;1696176;83;21145;-74
2022/04/22 05:23:21;;;;;;;17.20;15.32;;;;;;;9.00;79.91;100352.88;1694295;83;21270;-74
2022/04/22 05:25:49;;;;;;;15.58;13.85;;;;;;;9.00;79.82;100351.55;1685010;84;20975;-73
2022/04/22 05:28:18;;;;;;;15.28;13.65;;;;;;;9.00;79.82;100352.09;1689302;83;21025;-72
2022/04/22 05:33:33;;;;;;;16.50;14.80;;;;;;;9.04;79.94;100359.31;1705015;82;21159;-76
2022/04/22 05:36:06;;;;;;;17.55;15.75;;;;;;;9.10;79.92;100356.98;1692043;83;22123;-73
2022/04/22 05:38:34;;;;;;;17.42;15.63;;;;;;;9.17;79.87;100354.11;1682322;83;21028;-74
2022/04/22 05:41:03;;;;;;;15.50;13.70;;;;;;;9.26;79.83;100355.80;1688253;82;21151;-75
2022/04/22 05:43:31;;;;;;;16.77;14.98;;;;;;;9.31;79.70;100356.66;1680515;84;21543;-74
2022/04/22 05:46:01;;;;;;;18.70;15.80;;;;;;;9.35;79.66;100365.75;1685208;84;20956;-74
2022/04/22 05:48:29;;;;;;;18.60;16.60;;;;;;;9.39;79.53;100365.52;1649421;84;21168;-72
2022/04/22 05:50:56;;;;;;;16.55;14.78;;;;;;;9.43;79.47;100365.80;1689093;83;21465;-73
2022/04/22 05:53:23;;;;;;;16.00;14.15;;;;;;;9.47;79.37;100366.90;1661215;84;21564;-75
2022/04/22 05:55:52;;;;;;;15.10;13.53;;;;;;;9.52;79.31;100376.29;1691014;82;21573;-73
2022/04/22 05:58:19;;;;;;;17.20;15.40;;;;;;;9.58;79.24;100373.94;1687720;83;21022;-73
2022/04/22 06:00:47;;;;;;;18.05;15.75;;;;;;;9.62;79.05;100376.90;1696564;84;21082;-73
2022/04/22 06:03:16;;;;;;;15.95;14.15;;;;;;;9.59;78.81;100375.55;1697125;83;21094;-73
2022/04/22 06:05:44;;;;;;;18.82;15.60;;;;;;;9.56;78.69;100375.25;1695978;83;21161;-73
2022/04/22 06:10:58;;;;;;;18.15;16.10;;;;;;;9.55;78.71;100376.31;1696538;83;21050;-74
2022/04/22 06:13:27;;;;;;;18.12;16.23;;;;;;;9.60;78.60;100377.67;1696447;83;21135;-76
2022/04/22 06:15:55;;;;;;;19.05;15.93;;;;;;;9.61;78.41;100381.97;1688976;83;21109;-74
2022/04/22 06:18:23;;;;;;;17.57;15.28;;;;;;;9.60;78.25;100385.14;1696635;83;21664;-74
2022/04/22 06:20:51;;;;;;;17.95;16.05;;;;;;;9.58;78.23;100391.27;1692990;83;21038;-77
2022/04/22 06:23:18;;;;;;;17.80;15.95;;;;;;;9.61;78.20;100389.97;1691208;84;21026;-78
2022/04/22 06:25:48;;;;;;;19.25;16.35;;;;;;;9.62;78.09;100394.23;1708925;83;21013;-73
2022/04/22 06:28:16;;;;;;;18.37;15.60;;;;;;;9.65;78.00;100387.59;1667530;84;21134;-73
2022/04/22 06:30:44;;;;;;;17.57;15.45;;;;;;;9.66;78.00;100389.19;1695078;84;21072;-74
2022/04/22 06:33:14;;;;;;;16.93;14.65;;;;;;;9.65;78.03;100388.39;1664078;84;21570;-75
2022/04/22 06:35:42;;;;;;;19.60;17.50;;;;;;;9.70;78.20;100395.08;1695544;83;21119;-76
2022/04/22 06:38:09;;;;;;;19.82;17.73;;;;;;;9.75;78.24;100393.80;1680228;85;21158;-76
2022/04/22 06:46:10;;;;;;;18.07;16.10;;;;;;;10.03;77.87;100401.19;1682202;83;21098;-73
2022/04/22 06:48:39;;;;;;;19.12;17.12;;;;;;;10.05;77.55;100400.42;1660894;84;20959;-76
2022/04/22 06:51:06;;;;;;;18.77;16.77;;;;;;;10.06;77.54;100399.34;1669398;84;21904;-74
2022/04/22 06:53:35;;;;;;;17.67;15.88;;;;;;;10.13;77.49;100397.79;1676749;83;21093;-77
2022/04/22 06:56:06;;;;;;;20.00;17.87;;;;;;;10.20;77.35;100409.03;1691810;83;21121;-74
2022/04/22 06:58:37;;;;;;;19.80;16.73;;;;;;;10.20;77.09;100411.20;1664948;84;21126;-75
2022/04/22 07:01:07;;;;;;;19.17;17.10;;;;;;;10.20;76.83;100409.03;1664698;84;21114;-76
2022/04/22 07:03:35;;;;;;;19.17;17.15;;;;;;;10.20;76.74;100408.53;1689726;82;21333;-75
2022/04/22 07:06:04;;;;;;;19.60;16.87;;;;;;;10.22;76.49;100410.39;1685139;82;21067;-76
2022/04/22 07:08:31;;;;;;;21.07;18.65;;;;;;;10.24;76.34;100414.95;1687472;83;21075;-74
2022/04/22 07:11:00;;;;;;;20.50;18.40;;;;;;;10.26;76.19;100412.05;1685468;83;21876;-74
2022/04/22 07:13:29;;;;;;;20.60;18.32;;;;;;;10.29;76.08;100411.53;1685559;83;21245;-75
2022/04/22 07:15:56;;;;;;;20.55;18.02;;;;;;;10.32;75.99;100414.48;1688734;83;21926;-73
2022/04/22 07:18:24;;;;;;;20.08;16.77;;;;;;;10.38;75.85;100413.19;1681130;83;21011;-76
2022/04/22 07:20:53;;;;;;;19.60;17.55;;;;;;;10.38;75.70;100419.33;1680009;83;21117;-76
2022/04/22 07:23:21;;;;;;;19.75;17.65;;;;;;;10.40;75.46;100417.72;1684899;82;21010;-77
2022/04/22 07:25:50;;;;;;;17.98;16.05;;;;;;;10.41;75.32;100419.34;1686800;83;21059;-74
2022/04/22 07:28:19;;;;;;;20.00;17.55;;;;;;;10.44;75.29;100419.63;1683116;83;22467;-74
2022/04/22 07:30:50;;;;;;;19.62;17.62;;;;;;;10.44;75.12;100415.63;1684704;83;21032;-73
2022/04/22 07:33:17;;;;;;;20.07;17.97;;;;;;;10.46;75.12;100416.19;1665449;84;21109;-74
2022/04/22 07:35:45;;;;;;;20.35;18.00;;;;;;;10.47;75.02;100416.45;1647665;84;21193;-76
2022/04/22 07:38:14;;;;;;;20.20;17.98;;;;;;;10.54;75.05;100413.00;1683492;83;21100;-74
2022/04/22 07:40:44;;;;;;;20.10;17.95;;;;;;;10.63;74.93;100417.84;1685592;83;21171;-76
2022/04/22 07:48:47;;;;;;;21.23;19.00;;;;;;;10.77;74.01;100425.66;1693144;83;21391;-76
2022/04/22 07:51:16;;;;;;;20.70;18.47;;;;;;;10.82;73.71;100421.66;1680263;83;21484;-78
2022/04/22 07:53:44;;;;;;;20.70;18.50;;;;;;;10.90;73.45;100425.72;1668008;86;22293;-76
2022/04/22 07:56:11;;;;;;;21.27;18.98;;;;;;;10.95;73.08;100422.50;1668019;86;21946;-75
2022/04/22 07:58:38;;;;;;;20.15;17.73;;;;;;;10.99;72.74;100430.29;1655572;84;21050;-75
2022/04/22 08:01:08;;;;;;;21.20;19.00;;;;;;;11.03;72.37;100416.66;1683762;83;21035;-77
2022/04/22 08:03:37;;;;;;;21.70;19.43;;;;;;;11.04;71.95;100418.80;1680597;83;21318;-74
2022/04/22 08:06:10;;;;;;;22.70;19.63;;;;;;;11.04;71.42;100424.95;1665571;84;21362;-75
2022/04/22 08:08:37;;;;;;;21.47;18.43;;;;;;;11.06;71.31;100429.25;1689843;84;21242;-77
2022/04/22 08:11:06;;;;;;;21.63;18.67;;;;;;;11.08;71.26;100430.56;1702377;83;21429;-76
2022/04/22 08:13:35;;;;;;;24.43;20.50;;;;;;;11.07;70.98;100436.98;1694171;82;21342;-76
2022/04/22 08:16:02;;;;;;;21.23;18.87;;;;;;;11.04;70.77;100436.97;1694153;82;21384;-76
2022/04/22 08:18:31;;;;;;;21.10;18.80;;;;;;;11.01;70.66;100432.15;1651654;84;21322;-79
2022/04/22 08:20:58;;;;;;;18.87;16.87;;;;;;;10.96;70.47;100437.50;1650996;84;21140;-77
2022/04/22 08:23:25;;;;;;;21.03;18.47;;;;;;;10.94;70.48;100443.63;1686762;83;21391;-78
2022/04/22 08:25:55;;;;;;;22.50;18.70;;;;;;;10.88;70.42;100435.31;1687028;83;21266;-77
2022/04/22 08:28:23;;;;;;;21.12;18.82;;;;;;;10.86;70.48;100449.48;1654144;83;21890;-78
2022/04/22 08:30:50;;;;;;;20.83;18.63;;;;;;;10.86;70.50;100445.98;1684654;83;21552;-78
2022/04/22 08:33:18;;;;;;;20.82;17.75;;;;;;;10.86;70.54;100444.64;1684684;83;21122;-76
2022/04/22 08:35:45;;;;;;;21.10;18.27;;;;;;;10.85;70.53;100447.06;1687618;83;21522;-77
2022/04/22 08:38:14;;;;;;;23.73;19.67;;;;;;;10.85;70.53;100449.73;1685707;83;20995;-75
2022/04/22 08:40:42;;;;;;;20.90;17.97;;;;;;;10.80;70.60;100442.51;1682628;84;21341;-74
2022/04/22 08:43:11;;;;;;;19.87;17.77;;;;;;;10.83;70.66;100455.89;1664719;86;21358;-76
2022/04/22 08:45:39;;;;;;;20.17;17.93;;;;;;;10.86;70.55;100451.33;1664507;86;21316;-75
2022/04/22 08:50:55;;;;;;;20.90;18.40;;;;;;;10.89;70.50;100450.80;1639230;87;21357;-78
2022/04/22 08:53:25;;;;;;;19.57;17.47;;;;;;;10.88;70.49;100454.55;1671132;85;21641;-77
2022/04/22 08:55:57;;;;;;;;;;;;;;;10.89;70.59;100450.30;1670407;86;21341;-77
2022/04/22 08:58:25;;;;;;;20.40;18.20;;;;;;;10.90;70.57;100451.90;1623616;86;38500;-76
2022/04/22 09:00:56;;;;;;;22.37;19.93;;;;;;;10.88;70.44;100450.01;1666270;86;21331;-76
2022/04/22 09:03:28;;;;;;;22.73;20.23;;;;;;;10.88;70.29;100454.02;1701865;82;21684;-76
2022/04/22 09:05:56;;;;;;;22.10;19.70;;;;;;;10.88;70.27;100450.01;1664887;84;21967;-76
2022/04/22 09:08:28;;;;;;;21.73;19.37;;;;;;;10.91;70.29;100448.69;1693698;83;21012;-77
2022/04/22 09:10:57;;;;;;;21.83;19.47;;;;;;;10.93;70.29;100446.57;1656624;84;21854;-75
2022/04/22 09:13:27;;;;;;;23.70;20.47;;;;;;;10.93;70.14;100450.58;1677813;84;21134;-76
2022/04/22 09:15:58;;;;;;;23.20;18.90;;;;;;;10.94;70.14;100450.30;1660215;86;21269;-74
2022/04/22 09:18:26;;;;;;;20.30;17.80;;;;;;;10.99;70.14;100453.52;1667918;83;21426;-75
2022/04/22 09:21:01;;;;;;;21.50;17.47;;;;;;;11.06;70.14;100457.31;1682127;83;21223;-75
2022/04/22 09:23:33;;;;;;;21.00;18.03;;;;;;;11.11;69.99;100455.97;1677740;83;20955;-75
2022/04/22 09:26:04;;;;;;;20.27;18.07;;;;;;;11.15;69.86;100454.37;1679964;83;21447;-78
2022/04/22 09:28:34;;;;;;;21.13;18.83;;;;;;;11.20;69.68;100458.41;1689613;83;21430;-75
2022/04/22 09:31:04;;;;;;;19.87;17.77;;;;;;;11.22;69.42;100456.26;1693014;83;21364;-75
2022/04/22 09:33:44;;;;;;;21.93;18.53;;;;;;;11.22;69.23;100456.26;1688304;83;21953;-74
2022/04/22 09:45:08;;;;;;;18.63;16.63;;;;;;;11.36;68.64;100467.28;1676464;83;21405;-77
2022/04/22 09:47:37;;;;;;;20.17;18.07;;;;;;;11.39;68.46;100466.75;1671311;83;21244;-75
2022/04/22 09:50:10;;;;;;;19.27;17.00;;;;;;;11.41;68.22;100474.76;1670292;84;21281;-77
2022/04/22 09:52:43;;;;;;;20.13;18.03;;;;;;;11.43;68.14;100471.30;1675324;83;21590;-78
2022/04/22 09:55:15;;;;;;;21.55;18.02;;;;;;;11.47;68.12;100476.92;1677509;83;27486;-77
2022/04/22 09:57:56;;;;;;;21.75;18.62;;;;;;;11.50;68.00;100470.50;1677667;83;21683;-77
2022/04/22 10:00:30;;;;;;;21.30;19.00;;;;;;;11.58;67.89;100480.41;1679527;83;21115;-75
2022/04/22 10:02:59;;;;;;;21.13;18.93;;;;;;;11.60;67.61;100472.94;1676871;83;21316;-77
2022/04/22 10:05:28;;;;;;;20.60;18.40;;;;;;;11.64;67.56;100478.02;1681685;83;21275;-75
2022/04/22 10:07:56;;;;;;;17.43;15.63;;;;;;;11.73;67.52;100479.10;1683504;83;21390;-74
2022/04/22 10:10:39;;;;;;;20.83;17.47;;;;;;;11.79;67.48;100478.04;1683314;83;21341;-75
2022/04/22 10:13:17;;;;;;;19.90;17.83;;;;;;;11.84;67.59;100472.70;1662433;84;21759;-76
2022/04/22 10:15:45;;;;;;;19.90;17.53;;;;;;;11.92;67.46;100478.88;1684405;83;21325;-76
2022/04/22 10:18:14;;;;;;;19.33;16.93;;;;;;;11.99;67.25;100477.27;1687560;83;21425;-78
2022/04/22 10:20:43;;;;;;;19.97;17.83;;;;;;;12.01;67.01;100487.70;1670156;84;21354;-75
2022/04/22 10:23:10;;;;;;;18.90;16.70;;;;;;;12.02;66.70;100493.34;1685885;83;21717;-76
2022/04/22 10:25:39;;;;;;;19.70;16.63;;;;;;;12.02;66.56;100492.00;1685772;83;21330;-75
2022/04/22 10:28:10;;;;;;;19.63;16.77;;;;;;;12.04;66.59;100488.50;1685094;83;21600;-75
2022/04/22 10:30:42;;;;;;;20.23;18.10;;;;;;;12.05;66.48;100497.63;1686539;83;21237;-77
2022/04/22 10:33:10;;;;;;;19.30;17.30;;;;;;;12.05;66.32;100500.30;1678376;84;21221;-77
2022/04/22 10:35:45;;;;;;;19.27;17.17;;;;;;;12.05;66.13;100500.30;1654251;84;21042;-76
2022/04/22 10:38:35;;;;;;;21.10;17.80;;;;;;;12.04;66.11;100491.98;1667887;86;21306;-76
2022/04/22 10:41:03;;;;;;;19.00;17.00;;;;;;;12.07;66.16;100496.80;1690321;83;21663;-76
2022/04/22 10:43:30;;;;;;;18.37;16.10;;;;;;;12.11;66.03;100494.38;1664986;84;21396;-77
2022/04/22 10:49:14;;;;;;;17.13;15.33;;;;;;;12.18;66.05;100495.74;1646820;83;21270;-77
2022/04/22 10:52:09;;;;;;;18.70;16.27;;;;;;;12.25;65.98;100503.50;1663236;84;21352;-76
2022/04/22 10:54:55;;;;;;;18.50;16.43;;;;;;;12.29;65.78;100495.19;1664135;84;21856;-75
2022/04/22 10:57:31;;;;;;;16.80;14.93;;;;;;;12.33;65.70;100502.14;1665035;84;21452;-76
2022/04/22 11:00:12;;;;;;;17.77;15.97;;;;;;;12.39;65.69;100494.37;1681667;83;21099;-75
2022/04/22 11:02:42;;;;;;;18.10;16.30;;;;;;;12.43;65.64;100492.75;1664643;84;21768;-76
2022/04/22 11:05:34;;;;;;;17.23;15.13;;;;;;;12.49;65.61;100489.00;1685345;83;21326;-76
2022/04/22 11:08:01;;;;;;;18.40;15.83;;;;;;;12.55;65.44;100484.44;1684686;83;21840;-77
2022/04/22 11:10:54;;;;;;;18.63;16.73;;;;;;;12.58;65.31;100482.56;1685915;83;21889;-77
2022/04/22 11:13:43;;;;;;;17.27;14.55;;;;;;;12.65;65.19;100483.88;1689902;83;21778;-77
2022/04/22 11:16:30;;;;;;;16.07;14.37;;;;;;;12.77;64.98;100482.78;1687212;83;21547;-77
2022/04/22 11:19:24;;;;;;;17.07;15.27;;;;;;;12.83;64.63;100483.83;1685569;83;21978;-76
2022/04/22 11:21:57;;;;;;;15.70;14.10;;;;;;;12.91;64.34;100479.77;1652201;84;21393;-76
2022/04/22 11:24:34;;;;;;;15.30;13.68;;;;;;;13.02;64.18;100476.50;1683848;83;24267;-76
2022/04/22 11:27:11;;;;;;;14.37;12.87;;;;;;;13.08;63.98;100470.05;1664208;84;21039;-77
2022/04/22 11:29:40;;;;;;;14.77;13.27;;;;;;;13.13;63.53;100468.69;1656819;85;21289;-77
2022/04/22 11:32:19;;;;;;;16.73;15.00;;;;;;;13.15;63.32;100466.52;1683965;83;21598;-76
2022/04/22 11:35:10;;;;;;;16.07;14.40;;;;;;;13.18;63.21;100465.97;1678055;83;21382;-77
2022/04/22 11:37:39;;;;;;;15.50;13.90;;;;;;;13.25;63.01;100465.70;1629572;87;21670;-78
2022/04/22 11:40:08;;;;;;;15.93;14.30;;;;;;;13.29;62.87;100468.91;1675450;83;21174;-75
2022/04/22 11:42:43;;;;;;;15.50;13.90;;;;;;;13.32;62.59;100472.34;1682957;83;21252;-76
2022/04/22 11:45:14;;;;;;;16.23;14.53;;;;;;;13.32;62.39;100477.72;1664018;85;21508;-77
2022/04/22 11:47:42;;;;;;;14.58;13.08;;;;;;;13.34;62.00;100479.59;1686732;82;21390;-77
2022/04/22 11:50:19;;;;;;;15.00;13.40;;;;;;;13.36;61.97;100478.78;1684116;83;21027;-78
2022/04/22 11:52:54;;;;;;;15.73;14.13;;;;;;;13.42;61.82;100470.69;1677362;83;21241;-77
2022/04/22 11:55:21;;;;;;;14.83;13.27;;;;;;;13.41;61.34;100467.21;1666696;85;21312;-78
2022/04/22 11:57:49;;;;;;;15.90;13.80;;;;;;;13.40;61.32;100476.34;1666735;85;21481;-78
2022/04/22 12:05:51;;;;;;;13.13;11.73;;;;;;;13.55;61.35;100468.19;1694146;83;21402;-77
2022/04/22 12:08:19;;;;;;;14.57;12.70;;;;;;;13.68;60.92;100467.30;1688928;83;21754;-76
2022/04/22 12:10:48;;;;;;;13.67;12.27;;;;;;;13.82;60.27;100465.06;1668415;86;21350;-75
2022/04/22 12:13:16;;;;;;;12.20;11.00;;;;;;;13.87;60.48;100459.38;1665883;86;21514;-75
2022/04/22 12:15:48;;;;;;;14.17;12.80;;;;;;;13.87;60.48;100459.38;1675673;84;22079;-76
2022/04/22 12:18:27;;;;;;;12.98;11.68;;;;;;;13.81;60.38;100461.30;1695909;84;21534;-75
2022/04/22 12:20:57;;;;;;;13.97;12.47;;;;;;;13.77;60.49;100455.69;1663800;86;20968;-77
2022/04/22 12:23:36;;;;;;;14.07;12.77;;;;;;;13.70;60.95;100453.08;1696063;84;21487;-76
2022/04/22 12:26:03;;;;;;;14.80;12.83;;;;;;;13.70;60.95;100453.08;1666183;84;21413;-77